createdAt,value
2022-12-22T00:02:31.073Z,6.47
2022-12-22T00:05:40.040Z,6.67
2022-12-22T00:08:45.266Z,6.70
2022-12-22T00:11:50.863Z,7.40
2022-12-22T00:14:56.532Z,6.97
2022-12-22T00:18:02.617Z,7.17
2022-12-22T00:21:08.420Z,7.70
2022-12-22T00:24:14.350Z,6.93
2022-12-22T00:27:20.308Z,7.20
2022-12-22T00:30:31.890Z,7.47
2022-12-22T00:33:39.013Z,7.73
2022-12-22T00:36:44.473Z,8.33
2022-12-22T00:39:49.730Z,8.83
2022-12-22T00:42:54.912Z,9.37
2022-12-22T00:46:00.511Z,8.33
2022-12-22T00:49:06.955Z,9.17
2022-12-22T00:52:12.830Z,8.63
2022-12-22T00:55:18.760Z,7.67
2022-12-22T00:58:32.761Z,9.10
2022-12-22T01:01:38.032Z,8.57
2022-12-22T01:04:43.725Z,8.97
2022-12-22T01:07:49.256Z,9.27
2022-12-22T01:10:54.893Z,9.37
2022-12-22T01:14:00.555Z,9.87
2022-12-22T01:17:06.138Z,9.87
2022-12-22T01:20:11.440Z,9.07
2022-12-22T01:23:17.237Z,9.70
2022-12-22T01:26:27.497Z,9.43
2022-12-22T01:29:33.120Z,9.37
2022-12-22T01:32:38.260Z,9.23
2022-12-22T01:35:46.975Z,8.93
2022-12-22T01:38:52.467Z,9.90
2022-12-22T01:41:58.188Z,9.70
2022-12-22T01:45:03.445Z,10.93
2022-12-22T01:48:09.015Z,9.63
2022-12-22T01:51:15.382Z,10.77
2022-12-22T01:54:21.457Z,10.63
2022-12-22T01:57:27.267Z,10.70
2022-12-22T02:00:33.023Z,10.77
2022-12-22T02:03:40.779Z,11.07
2022-12-22T02:06:59.506Z,11.10
2022-12-22T02:10:32.669Z,10.70
2022-12-22T02:14:09.794Z,10.50
2022-12-22T02:17:18.681Z,10.60
2022-12-22T02:20:49.542Z,10.47
2022-12-22T02:24:09.676Z,10.30
2022-12-22T02:27:18.691Z,10.60
2022-12-22T02:30:26.075Z,10.47
2022-12-22T02:33:31.808Z,10.70
2022-12-22T02:37:07.295Z,11.00
2022-12-22T02:40:23.919Z,13.10
2022-12-22T02:43:40.960Z,11.27
2022-12-22T02:46:56.592Z,11.47
2022-12-22T02:50:14.143Z,11.97
2022-12-22T02:53:20.997Z,11.63
2022-12-22T02:56:28.447Z,11.80
2022-12-22T02:59:34.334Z,11.07
2022-12-22T03:02:40.247Z,10.40
2022-12-22T03:05:45.643Z,12.00
2022-12-22T03:08:51.042Z,10.67
2022-12-22T03:11:56.852Z,11.10
2022-12-22T03:15:02.653Z,11.77
2022-12-22T03:18:08.367Z,10.80
2022-12-22T03:21:14.546Z,12.17
2022-12-22T03:24:20.312Z,12.77
2022-12-22T03:27:07.406Z,12.37
2022-12-22T03:29:54.378Z,11.10
2022-12-22T03:32:41.432Z,11.27
2022-12-22T03:35:28.586Z,9.87
2022-12-22T03:38:15.933Z,9.30
2022-12-22T03:41:03.795Z,10.60
2022-12-22T03:44:09.364Z,10.23
2022-12-22T03:46:56.460Z,11.40
2022-12-22T03:49:43.557Z,10.77
2022-12-22T03:52:30.488Z,12.83
2022-12-22T03:55:17.489Z,16.07
2022-12-22T03:58:04.562Z,19.90
2022-12-22T04:00:51.654Z,21.77
2022-12-22T04:03:38.688Z,32.47
2022-12-22T04:06:25.743Z,9.63
2022-12-22T04:09:12.745Z,8.90
2022-12-22T04:12:18.259Z,14.80
2022-12-22T04:15:05.883Z,10.27
2022-12-22T04:17:53.312Z,11.60
2022-12-22T04:20:40.240Z,21.10
2022-12-22T04:23:27.451Z,17.93
2022-12-22T04:26:14.451Z,13.43
2022-12-22T04:29:01.793Z,18.63
2022-12-22T04:31:48.857Z,12.23
2022-12-22T04:34:36.076Z,13.03
2022-12-22T04:37:23.136Z,11.73
2022-12-22T04:40:10.389Z,13.23
2022-12-22T04:42:57.318Z,14.90
2022-12-22T04:45:45.029Z,11.37
2022-12-22T04:48:32.718Z,12.77
2022-12-22T04:51:19.722Z,14.20
2022-12-22T04:54:06.735Z,11.90
2022-12-22T04:56:53.991Z,11.27
2022-12-22T04:59:40.926Z,11.83
2022-12-22T05:02:28.097Z,11.90
2022-12-22T05:05:15.253Z,13.33
2022-12-22T05:08:03.235Z,13.10
2022-12-22T05:10:50.302Z,12.97
2022-12-22T05:13:37.323Z,14.77
2022-12-22T05:16:24.396Z,12.83
2022-12-22T05:19:11.532Z,13.97
2022-12-22T05:21:58.516Z,14.13
2022-12-22T05:24:45.567Z,13.30
2022-12-22T05:27:32.536Z,12.80
2022-12-22T05:30:20.375Z,13.53
2022-12-22T05:33:07.345Z,13.27
2022-12-22T05:35:54.290Z,19.63
2022-12-22T05:38:42.007Z,14.57
2022-12-22T05:41:29.051Z,16.57
2022-12-22T05:44:16.120Z,14.20
2022-12-22T05:47:03.230Z,11.53
2022-12-22T05:49:50.243Z,21.67
2022-12-22T05:52:37.360Z,12.23
2022-12-22T05:55:24.430Z,13.60
2022-12-22T05:58:11.342Z,13.73
2022-12-22T06:00:59.381Z,14.33
2022-12-22T06:03:46.581Z,38.80
2022-12-22T06:06:33.657Z,11.33
2022-12-22T06:09:20.591Z,11.27
2022-12-22T06:12:08.206Z,9.23
2022-12-22T06:14:55.267Z,8.83
2022-12-22T06:17:45.135Z,13.67
2022-12-22T06:20:32.569Z,10.97
2022-12-22T06:23:20.903Z,9.67
2022-12-22T06:26:08.878Z,9.93
2022-12-22T06:28:56.003Z,7.83
2022-12-22T06:31:43.024Z,12.00
2022-12-22T06:34:30.073Z,9.40
2022-12-22T06:37:17.046Z,8.20
2022-12-22T06:40:04.647Z,9.57
2022-12-22T06:43:10.522Z,14.60
2022-12-22T06:45:57.913Z,12.40
2022-12-22T06:48:45.180Z,10.83
2022-12-22T06:51:32.340Z,9.00
2022-12-22T06:54:24.068Z,8.50
2022-12-22T06:57:13.367Z,16.50
2022-12-22T07:00:00.452Z,12.13
2022-12-22T07:02:47.541Z,10.10
2022-12-22T07:05:34.999Z,10.80
2022-12-22T07:08:22.133Z,10.63
2022-12-22T07:11:09.598Z,14.70
2022-12-22T07:13:56.611Z,13.73
2022-12-22T07:16:43.735Z,16.97
2022-12-22T07:19:30.749Z,18.50
2022-12-22T07:22:17.747Z,18.23
2022-12-22T07:25:05.151Z,18.13
2022-12-22T07:27:52.197Z,22.13
2022-12-22T07:30:39.309Z,26.40
2022-12-22T07:33:26.456Z,17.00
2022-12-22T07:36:19.826Z,16.33
2022-12-22T07:39:07.487Z,20.30
2022-12-22T07:42:12.987Z,20.33
2022-12-22T07:44:59.909Z,16.97
2022-12-22T07:47:47.328Z,25.10
2022-12-22T07:50:35.485Z,18.70
2022-12-22T07:53:22.473Z,20.53
2022-12-22T07:56:09.443Z,18.63
2022-12-22T07:58:56.587Z,17.37
2022-12-22T08:01:45.528Z,28.33
2022-12-22T08:04:32.820Z,41.70
2022-12-22T08:07:19.914Z,22.13
2022-12-22T08:10:08.391Z,20.53
2022-12-22T08:12:55.707Z,24.37
2022-12-22T08:15:42.967Z,16.43
2022-12-22T08:18:30.254Z,22.27
2022-12-22T08:21:17.746Z,21.10
2022-12-22T08:24:05.354Z,23.50
2022-12-22T08:26:55.921Z,17.57
2022-12-22T08:29:48.616Z,23.43
2022-12-22T08:32:38.316Z,34.30
2022-12-22T08:35:25.874Z,38.73
2022-12-22T08:38:14.540Z,18.77
2022-12-22T08:41:01.744Z,14.20
2022-12-22T08:43:48.793Z,20.27
2022-12-22T08:46:35.923Z,21.23
2022-12-22T08:49:23.719Z,31.10
2022-12-22T08:52:17.840Z,53.87
2022-12-22T08:55:06.218Z,23.17
2022-12-22T08:57:56.186Z,31.40
2022-12-22T09:00:44.428Z,30.97
2022-12-22T09:03:31.481Z,29.03
2022-12-22T09:06:27.256Z,36.47
2022-12-22T09:09:16.985Z,30.37
2022-12-22T09:12:04.266Z,30.93
2022-12-22T09:14:51.209Z,27.17
2022-12-22T09:17:38.391Z,28.10
2022-12-22T09:20:25.382Z,32.00
2022-12-22T09:23:12.388Z,27.40
2022-12-22T09:25:59.509Z,29.17
2022-12-22T09:28:50.579Z,30.27
2022-12-22T09:31:38.017Z,33.73
2022-12-22T09:34:25.049Z,32.93
2022-12-22T09:37:15.279Z,40.07
2022-12-22T09:40:02.305Z,45.40
2022-12-22T09:42:49.342Z,30.13
2022-12-22T09:45:36.985Z,21.70
2022-12-22T09:48:30.635Z,20.30
2022-12-22T09:51:24.463Z,24.40
2022-12-22T09:54:14.356Z,52.37
2022-12-22T09:57:01.632Z,29.33
2022-12-22T09:59:48.740Z,16.80
2022-12-22T10:03:02.026Z,25.33
2022-12-22T10:05:54.060Z,17.37
2022-12-22T10:08:41.403Z,15.13
2022-12-22T10:11:28.527Z,18.40
2022-12-22T10:14:15.444Z,18.23
2022-12-22T10:17:19.111Z,18.70
2022-12-22T10:20:29.893Z,22.70
2022-12-22T10:23:26.846Z,21.40
2022-12-22T10:26:34.320Z,21.87
2022-12-22T10:29:26.621Z,24.83
2022-12-22T10:32:19.591Z,22.40
2022-12-22T10:35:07.442Z,23.00
2022-12-22T10:37:57.838Z,23.07
2022-12-22T10:40:48.682Z,24.83
2022-12-22T10:43:40.345Z,25.40
2022-12-22T10:46:36.018Z,24.30
2022-12-22T10:52:32.335Z,23.70
2022-12-22T10:55:22.654Z,24.73
2022-12-22T10:58:21.786Z,21.90
2022-12-22T11:01:11.958Z,22.83
2022-12-22T11:04:25.466Z,21.97
2022-12-22T11:07:12.757Z,22.80
2022-12-22T11:10:00.283Z,21.90
2022-12-22T11:12:50.019Z,21.00
2022-12-22T11:15:54.856Z,19.93
2022-12-22T11:18:56.885Z,20.47
2022-12-22T11:22:13.182Z,20.83
2022-12-22T11:25:12.967Z,20.17
2022-12-22T11:28:18.087Z,18.23
2022-12-22T11:31:35.446Z,20.00
2022-12-22T11:35:13.384Z,20.70
2022-12-22T11:38:12.463Z,20.47
2022-12-22T11:41:05.190Z,20.63
2022-12-22T11:43:55.028Z,20.67
2022-12-22T11:46:52.468Z,20.53
2022-12-22T11:50:59.214Z,20.83
2022-12-22T11:53:37.742Z,20.03
2022-12-22T11:56:30.073Z,20.97
2022-12-22T11:59:41.460Z,21.00
2022-12-22T12:02:54.074Z,20.97
2022-12-22T12:05:53.183Z,20.20
2022-12-22T12:09:14.598Z,20.93
2022-12-22T12:12:07.571Z,19.90
2022-12-22T12:15:16.220Z,20.67
2022-12-22T12:18:35.687Z,22.03
2022-12-22T12:21:26.829Z,23.23
2022-12-22T12:24:40.689Z,22.90
2022-12-22T12:27:49.234Z,24.57
2022-12-22T12:30:45.222Z,22.93
2022-12-22T12:33:50.591Z,22.03
2022-12-22T12:37:01.930Z,21.27
2022-12-22T12:40:17.199Z,21.53
2022-12-22T12:43:06.771Z,22.23
2022-12-22T12:45:55.499Z,23.70
2022-12-22T12:48:42.881Z,22.37
2022-12-22T12:51:48.103Z,22.27
2022-12-22T12:54:39.367Z,23.93
2022-12-22T12:57:46.240Z,22.33
2022-12-22T13:00:33.532Z,21.70
2022-12-22T13:06:50.015Z,21.30
2022-12-22T13:10:07.214Z,20.07
2022-12-22T13:12:54.980Z,19.30
2022-12-22T13:15:45.301Z,19.10
2022-12-22T13:18:35.339Z,19.53
2022-12-22T13:24:47.230Z,18.23
2022-12-22T13:27:36.690Z,16.80
2022-12-22T13:30:24.711Z,15.70
2022-12-22T13:33:15.602Z,16.23
2022-12-22T13:36:03.719Z,15.17
2022-12-22T13:39:01.269Z,15.63
2022-12-22T13:41:50.472Z,15.73
2022-12-22T13:44:38.802Z,14.77
2022-12-22T13:47:25.896Z,13.33
2022-12-22T13:50:25.298Z,13.67
2022-12-22T13:53:42.275Z,12.13
2022-12-22T13:56:41.481Z,13.10
2022-12-22T13:59:42.158Z,11.00
2022-12-22T14:02:32.626Z,10.57
2022-12-22T14:05:20.305Z,9.63
2022-12-22T14:08:10.699Z,9.20
2022-12-22T14:10:57.751Z,8.73
2022-12-22T14:13:45.152Z,9.03
2022-12-22T14:16:32.918Z,8.27
2022-12-22T14:19:22.441Z,8.83
2022-12-22T14:22:15.021Z,8.87
2022-12-22T14:25:09.490Z,8.47
2022-12-22T14:27:57.452Z,8.57
2022-12-22T14:30:49.226Z,8.77
2022-12-22T14:33:36.686Z,9.30
2022-12-22T14:36:26.264Z,9.17
2022-12-22T14:39:25.972Z,8.83
2022-12-22T14:42:14.520Z,10.57
2022-12-22T14:45:01.624Z,9.43
2022-12-22T14:47:48.846Z,8.83
2022-12-22T14:50:37.022Z,8.70
2022-12-22T14:53:52.771Z,8.63
2022-12-22T14:56:51.849Z,6.93
2022-12-22T14:59:38.766Z,7.40
2022-12-22T15:02:36.578Z,8.07
2022-12-22T15:05:31.515Z,7.67
2022-12-22T15:08:43.228Z,7.63
2022-12-22T15:11:31.646Z,8.07
2022-12-22T15:14:22.004Z,7.57
2022-12-22T15:17:28.135Z,7.80
2022-12-22T15:20:21.955Z,8.00
2022-12-22T15:23:14.483Z,7.67
2022-12-22T15:26:01.541Z,8.17
2022-12-22T15:28:48.542Z,9.73
2022-12-22T15:31:37.212Z,10.10
2022-12-22T15:34:30.917Z,10.37
2022-12-22T15:37:18.024Z,11.57
2022-12-22T15:40:12.471Z,11.53
2022-12-22T15:42:59.496Z,12.90
2022-12-22T15:45:46.744Z,14.00
2022-12-22T15:48:36.565Z,13.97
2022-12-22T15:51:27.937Z,14.67
2022-12-22T15:54:16.081Z,14.40
2022-12-22T15:57:03.070Z,15.70
2022-12-22T15:59:50.047Z,13.47
2022-12-22T16:02:37.238Z,14.93
2022-12-22T16:05:24.338Z,14.83
2022-12-22T16:08:18.318Z,16.17
2022-12-22T16:11:07.412Z,15.10
2022-12-22T16:13:54.422Z,13.63
2022-12-22T16:16:41.779Z,14.60
2022-12-22T16:19:28.847Z,15.30
2022-12-22T16:22:19.226Z,14.00
2022-12-22T16:25:13.090Z,15.43
2022-12-22T16:28:01.429Z,17.53
2022-12-22T16:30:49.348Z,16.67
2022-12-22T16:33:37.676Z,16.47
2022-12-22T16:36:24.724Z,17.73
2022-12-22T16:39:11.905Z,18.53
2022-12-22T16:42:00.487Z,17.13
2022-12-22T16:45:01.045Z,17.50
2022-12-22T16:47:52.347Z,20.43
2022-12-22T16:50:39.659Z,16.80
2022-12-22T16:53:28.703Z,17.57
2022-12-22T16:56:22.393Z,18.83
2022-12-22T16:59:09.855Z,18.17
2022-12-22T17:01:57.919Z,18.63
2022-12-22T17:04:45.497Z,17.90
2022-12-22T17:07:33.644Z,18.03
2022-12-22T17:10:22.781Z,18.80
2022-12-22T17:13:11.070Z,18.53
2022-12-22T17:15:58.153Z,18.10
2022-12-22T17:18:45.194Z,18.27
2022-12-22T17:21:32.715Z,17.83
2022-12-22T17:24:27.520Z,18.53
2022-12-22T17:27:16.077Z,19.53
2022-12-22T17:30:04.068Z,20.43
2022-12-22T17:32:54.397Z,18.57
2022-12-22T17:35:43.733Z,19.60
2022-12-22T17:38:30.889Z,19.03
2022-12-22T17:41:18.000Z,21.07
2022-12-22T17:44:05.159Z,21.93
2022-12-22T17:46:52.629Z,21.97
2022-12-22T17:49:40.300Z,21.43
2022-12-22T17:52:28.220Z,20.87
2022-12-22T17:56:05.891Z,20.23
2022-12-22T17:58:33.566Z,20.33
2022-12-22T18:01:32.003Z,18.57
2022-12-22T18:04:19.108Z,21.60
2022-12-22T18:07:06.149Z,20.17
2022-12-22T18:09:59.054Z,19.47
2022-12-22T18:12:46.095Z,20.57
2022-12-22T18:15:33.041Z,20.00
2022-12-22T18:18:21.049Z,25.73
2022-12-22T18:21:22.701Z,25.47
2022-12-22T18:24:16.737Z,28.10
2022-12-22T18:27:03.756Z,27.87
2022-12-22T18:29:51.081Z,26.03
2022-12-22T18:32:38.095Z,25.63
2022-12-22T18:35:28.093Z,25.40
2022-12-22T18:38:32.679Z,24.77
2022-12-22T18:41:24.699Z,24.97
2022-12-22T18:44:19.263Z,26.53
2022-12-22T18:47:08.211Z,26.93
2022-12-22T18:49:55.309Z,26.17
2022-12-22T18:52:43.224Z,26.63
2022-12-22T18:55:32.470Z,27.70
2022-12-22T18:58:19.767Z,27.40
2022-12-22T19:01:11.552Z,27.40
2022-12-22T19:03:59.243Z,27.93
2022-12-22T19:06:47.239Z,28.97
2022-12-22T19:09:34.648Z,30.00
2022-12-22T19:12:25.978Z,28.30
2022-12-22T19:15:25.991Z,28.37
2022-12-22T19:18:24.311Z,29.17
2022-12-22T19:21:15.204Z,28.13
2022-12-22T19:24:02.098Z,28.20
2022-12-22T19:26:49.768Z,26.63
2022-12-22T19:29:36.913Z,27.43
2022-12-22T19:32:27.972Z,28.23
2022-12-22T19:35:17.960Z,27.00
2022-12-22T19:38:20.292Z,27.30
2022-12-22T19:41:13.713Z,26.90
2022-12-22T19:44:01.185Z,26.77
2022-12-22T19:46:49.088Z,25.93
2022-12-22T19:49:36.267Z,29.70
2022-12-22T19:52:23.188Z,28.77
2022-12-22T19:55:10.657Z,25.50
2022-12-22T19:57:57.919Z,26.87
2022-12-22T20:00:46.750Z,23.30
2022-12-22T20:03:33.791Z,26.07
2022-12-22T20:06:20.948Z,27.37
2022-12-22T20:09:07.873Z,25.17
2022-12-22T20:11:54.937Z,23.80
2022-12-22T20:14:41.886Z,24.73
2022-12-22T20:17:28.900Z,25.67
2022-12-22T20:20:18.803Z,24.17
2022-12-22T20:23:17.110Z,23.07
2022-12-22T20:26:07.969Z,23.70
2022-12-22T20:28:55.015Z,22.67
2022-12-22T20:31:42.097Z,24.13
2022-12-22T20:34:29.066Z,23.03
2022-12-22T20:37:17.642Z,22.63
2022-12-22T20:40:05.598Z,22.57
2022-12-22T20:42:52.867Z,22.60
2022-12-22T20:45:40.975Z,22.07
2022-12-22T20:48:35.204Z,22.70
2022-12-22T20:51:24.378Z,22.03
2022-12-22T20:54:15.479Z,21.83
2022-12-22T20:57:03.027Z,22.57
2022-12-22T20:59:56.041Z,22.30
2022-12-22T21:02:43.822Z,23.20
2022-12-22T21:05:30.853Z,24.30
2022-12-22T21:08:24.080Z,23.57
2022-12-22T21:11:11.048Z,23.97
2022-12-22T21:13:59.216Z,25.30
2022-12-22T21:16:46.327Z,23.30
2022-12-22T21:19:34.311Z,26.50
2022-12-22T21:22:21.327Z,25.10
2022-12-22T21:25:09.897Z,26.50
2022-12-22T21:27:57.201Z,26.97
2022-12-22T21:30:44.228Z,25.90
2022-12-22T21:33:31.584Z,23.53
2022-12-22T21:36:27.851Z,24.60
2022-12-22T21:39:39.390Z,25.93
2022-12-22T21:42:26.436Z,23.97
2022-12-22T21:45:15.424Z,26.37
2022-12-22T21:48:02.550Z,25.93
2022-12-22T21:50:52.635Z,37.40
2022-12-22T21:53:39.631Z,26.87
2022-12-22T21:56:26.617Z,27.43
2022-12-22T21:59:14.085Z,26.20
2022-12-22T22:02:01.157Z,25.17
2022-12-22T22:04:54.151Z,27.33
2022-12-22T22:07:42.394Z,26.77
2022-12-22T22:10:32.156Z,22.80
2022-12-22T22:13:19.093Z,23.63
2022-12-22T22:16:07.924Z,22.37
2022-12-22T22:18:54.910Z,22.27
2022-12-22T22:21:41.887Z,22.40
2022-12-22T22:24:31.283Z,21.97
2022-12-22T22:27:18.286Z,22.63
2022-12-22T22:30:06.679Z,21.70
2022-12-22T22:32:55.198Z,22.47
2022-12-22T22:35:42.540Z,21.77
2022-12-22T22:38:29.547Z,21.40
2022-12-22T22:41:16.518Z,19.60
2022-12-22T22:44:03.503Z,20.33
2022-12-22T22:46:50.582Z,20.33
2022-12-22T22:49:37.609Z,20.30
2022-12-22T22:52:24.620Z,20.93
2022-12-22T22:55:12.782Z,20.87
2022-12-22T22:57:59.773Z,20.83
2022-12-22T23:00:46.848Z,20.30
2022-12-22T23:03:34.004Z,20.40
2022-12-22T23:06:21.263Z,20.17
2022-12-22T23:09:09.041Z,20.77
2022-12-22T23:11:56.062Z,20.23
2022-12-22T23:14:43.062Z,19.87
2022-12-22T23:17:30.014Z,17.87
2022-12-22T23:20:17.155Z,19.03
2022-12-22T23:23:04.134Z,17.60
2022-12-22T23:25:51.347Z,19.30
2022-12-22T23:28:39.047Z,18.43
2022-12-22T23:31:26.580Z,18.63
2022-12-22T23:34:13.673Z,17.80
2022-12-22T23:37:01.010Z,20.73
2022-12-22T23:39:47.998Z,19.83
2022-12-22T23:42:34.958Z,18.53
2022-12-22T23:45:21.970Z,17.60
2022-12-22T23:48:09.863Z,17.77
2022-12-22T23:50:56.842Z,16.30
2022-12-22T23:53:44.062Z,16.83
2022-12-22T23:56:31.737Z,16.77
2022-12-22T23:59:18.737Z,17.57
